Time;durP1;ratioP1;P1;durP2;ratioP2;P2;SDS_P1;SDS_P2;PMS_P1;PMS_P2;Temp;Humidity;BMP_temperature;BMP_pressure;BME280_temperature;BME280_humidity;BME280_pressure;Samples;Min_cycle;Max_cycle;Signal;HPM_P1;HPM_P2
2023/08/08 00:01:49;;;;;;;5.93;0.65;;;;;;;;;;6119386;23;20470;-41
2023/08/08 00:04:17;;;;;;;5.60;1.25;;;;;;;;;;6128291;23;20028;-43
2023/08/08 00:06:44;;;;;;;6.18;1.38;;;;;;;;;;6124009;23;20017;-41
2023/08/08 00:09:13;;;;;;;6.05;0.85;;;;;;;;;;6128182;23;20018;-42
2023/08/08 00:11:42;;;;;;;5.20;0.87;;;;;;;;;;6144460;23;20024;-42
2023/08/08 00:14:12;;;;;;;6.07;1.80;;;;;;;;;;6125246;23;20013;-43
2023/08/08 00:16:40;;;;;;;5.15;1.25;;;;;;;;;;6128486;23;20013;-43
2023/08/08 00:19:08;;;;;;;6.78;1.38;;;;;;;;;;6120380;23;20024;-41
2023/08/08 00:21:35;;;;;;;8.57;1.60;;;;;;;;;;6127331;23;20013;-42
2023/08/08 00:24:03;;;;;;;5.40;1.00;;;;;;;;;;6117791;23;20025;-41
2023/08/08 00:26:31;;;;;;;6.22;1.33;;;;;;;;;;6126960;23;20021;-44
2023/08/08 00:29:00;;;;;;;8.02;1.35;;;;;;;;;;6121405;23;20014;-45
2023/08/08 00:31:27;;;;;;;6.97;1.67;;;;;;;;;;6119857;23;20085;-41
2023/08/08 00:33:55;;;;;;;9.93;1.50;;;;;;;;;;6125035;23;20519;-43
2023/08/08 00:36:23;;;;;;;5.30;1.37;;;;;;;;;;6120023;23;20013;-44
2023/08/08 00:38:51;;;;;;;5.80;1.45;;;;;;;;;;6132668;23;20017;-42
2023/08/08 00:41:18;;;;;;;5.63;1.50;;;;;;;;;;6119370;23;20014;-42
2023/08/08 00:43:46;;;;;;;6.47;1.52;;;;;;;;;;6128080;23;20017;-43
2023/08/08 00:46:15;;;;;;;6.35;1.25;;;;;;;;;;6117211;23;20013;-42
2023/08/08 00:48:44;;;;;;;8.43;1.23;;;;;;;;;;6125993;23;20341;-42
2023/08/08 00:51:13;;;;;;;5.35;1.40;;;;;;;;;;6129391;23;20017;-42
2023/08/08 00:53:41;;;;;;;5.28;1.20;;;;;;;;;;6114725;23;20021;-43
2023/08/08 00:56:09;;;;;;;6.07;1.27;;;;;;;;;;6130278;23;20064;-42
2023/08/08 00:58:37;;;;;;;4.43;1.45;;;;;;;;;;6117193;23;20076;-41
2023/08/08 01:01:04;;;;;;;5.97;1.10;;;;;;;;;;6129295;23;20085;-42
2023/08/08 01:03:34;;;;;;;5.65;1.33;;;;;;;;;;6121287;23;20487;-41
2023/08/08 01:06:04;;;;;;;6.60;1.50;;;;;;;;;;6125055;23;20355;-42
2023/08/08 01:08:34;;;;;;;7.45;1.67;;;;;;;;;;6109821;23;20456;-43
2023/08/08 01:11:03;;;;;;;10.27;1.40;;;;;;;;;;6121471;23;20021;-43
2023/08/08 01:13:31;;;;;;;6.00;1.30;;;;;;;;;;6124348;23;20068;-43
2023/08/08 01:15:59;;;;;;;6.78;1.80;;;;;;;;;;6110813;23;20028;-43
2023/08/08 01:18:28;;;;;;;6.47;1.40;;;;;;;;;;6127853;23;20048;-43
2023/08/08 01:20:57;;;;;;;5.13;1.27;;;;;;;;;;6117218;23;20021;-43
2023/08/08 01:23:27;;;;;;;6.35;1.67;;;;;;;;;;6133806;23;20022;-43
2023/08/08 01:25:56;;;;;;;5.67;1.27;;;;;;;;;;6120810;23;20033;-43
2023/08/08 01:28:25;;;;;;;5.57;1.83;;;;;;;;;;6111657;23;20254;-43
2023/08/08 01:30:54;;;;;;;7.53;1.45;;;;;;;;;;6124419;23;20015;-45
2023/08/08 01:33:23;;;;;;;6.03;1.63;;;;;;;;;;6128011;23;20049;-43
2023/08/08 01:35:54;;;;;;;8.10;1.80;;;;;;;;;;6123185;23;20017;-43
2023/08/08 01:38:24;;;;;;;8.00;1.20;;;;;;;;;;6128554;23;20032;-43
2023/08/08 01:40:52;;;;;;;6.43;1.40;;;;;;;;;;6125948;23;20021;-43
2023/08/08 01:43:21;;;;;;;5.38;1.80;;;;;;;;;;6119280;23;20017;-43
2023/08/08 01:45:49;;;;;;;7.63;1.35;;;;;;;;;;6125773;23;20072;-43
2023/08/08 01:48:17;;;;;;;5.82;1.42;;;;;;;;;;6125724;23;20134;-42
2023/08/08 01:50:44;;;;;;;8.10;1.80;;;;;;;;;;6129361;23;20025;-45
2023/08/08 01:53:12;;;;;;;8.63;1.80;;;;;;;;;;6126731;23;20994;-43
2023/08/08 01:55:40;;;;;;;6.57;1.90;;;;;;;;;;6120942;23;20021;-43
2023/08/08 01:58:08;;;;;;;6.35;1.70;;;;;;;;;;6126725;23;20025;-42
2023/08/08 02:00:37;;;;;;;6.13;1.63;;;;;;;;;;6129463;23;20354;-44
2023/08/08 02:03:05;;;;;;;6.13;1.70;;;;;;;;;;6122384;23;20014;-45
2023/08/08 02:05:33;;;;;;;5.07;1.60;;;;;;;;;;6130437;23;20056;-42
2023/08/08 02:08:00;;;;;;;11.10;1.95;;;;;;;;;;6120456;23;20092;-42
2023/08/08 02:10:28;;;;;;;7.35;1.67;;;;;;;;;;6122713;23;20515;-42
2023/08/08 02:12:56;;;;;;;5.88;1.67;;;;;;;;;;6134136;23;20021;-44
2023/08/08 02:15:23;;;;;;;10.43;2.40;;;;;;;;;;6127339;23;20563;-42
2023/08/08 02:17:53;;;;;;;7.05;1.77;;;;;;;;;;6146019;23;20030;-42
2023/08/08 02:20:21;;;;;;;7.05;1.90;;;;;;;;;;6136204;23;20080;-45
2023/08/08 02:22:48;;;;;;;5.70;1.60;;;;;;;;;;6121527;23;20022;-44
2023/08/08 02:25:16;;;;;;;6.90;1.95;;;;;;;;;;6115331;23;20040;-45
2023/08/08 02:27:44;;;;;;;8.03;1.53;;;;;;;;;;6131477;23;20085;-43
2023/08/08 02:30:16;;;;;;;9.30;1.70;;;;;;;;;;6117553;23;20037;-42
2023/08/08 02:32:43;;;;;;;5.35;2.03;;;;;;;;;;6127918;23;20025;-43
2023/08/08 02:35:12;;;;;;;7.57;1.60;;;;;;;;;;6131695;23;20388;-41
2023/08/08 02:37:40;;;;;;;8.50;1.88;;;;;;;;;;6134130;23;20018;-42
2023/08/08 02:40:09;;;;;;;7.80;1.50;;;;;;;;;;6132161;23;20452;-42
2023/08/08 02:42:37;;;;;;;5.35;2.05;;;;;;;;;;6131305;23;20025;-42
2023/08/08 02:45:05;;;;;;;7.50;1.80;;;;;;;;;;6120382;23;20025;-41
2023/08/08 02:47:33;;;;;;;5.88;1.80;;;;;;;;;;6130811;23;20018;-43
2023/08/08 02:50:00;;;;;;;7.40;1.70;;;;;;;;;;6131487;23;20445;-42
2023/08/08 02:52:29;;;;;;;6.87;1.50;;;;;;;;;;6118555;23;20025;-42
2023/08/08 02:54:57;;;;;;;5.55;1.88;;;;;;;;;;6138326;23;20739;-43
2023/08/08 02:57:25;;;;;;;7.82;1.98;;;;;;;;;;6119454;23;20233;-42
2023/08/08 02:59:52;;;;;;;7.53;2.13;;;;;;;;;;6136385;23;20014;-41
2023/08/08 03:02:20;;;;;;;6.63;1.80;;;;;;;;;;6122143;23;20064;-44
2023/08/08 03:04:48;;;;;;;8.80;2.20;;;;;;;;;;6134186;23;20014;-41
2023/08/08 03:07:15;;;;;;;7.47;2.25;;;;;;;;;;6132748;23;20014;-41
2023/08/08 03:09:44;;;;;;;6.13;1.85;;;;;;;;;;6125465;23;20017;-42
2023/08/08 03:12:12;;;;;;;5.40;1.42;;;;;;;;;;6137482;23;20017;-42
2023/08/08 03:14:40;;;;;;;6.50;1.80;;;;;;;;;;6149723;23;20026;-43
2023/08/08 03:17:08;;;;;;;7.23;1.90;;;;;;;;;;6148284;23;20021;-43
2023/08/08 03:19:35;;;;;;;8.02;2.10;;;;;;;;;;6133007;23;20048;-42
2023/08/08 03:22:03;;;;;;;6.57;1.73;;;;;;;;;;6125642;23;20079;-42
2023/08/08 03:24:31;;;;;;;7.00;1.90;;;;;;;;;;6133855;23;20018;-42
2023/08/08 03:27:00;;;;;;;7.03;1.80;;;;;;;;;;6135166;23;20217;-42
2023/08/08 03:29:27;;;;;;;6.77;1.80;;;;;;;;;;6127555;23;20028;-42
2023/08/08 03:31:55;;;;;;;7.45;1.58;;;;;;;;;;6106726;23;20024;-41
2023/08/08 03:34:23;;;;;;;5.15;1.60;;;;;;;;;;6138400;23;20028;-41
2023/08/08 03:36:51;;;;;;;7.22;1.60;;;;;;;;;;6131066;23;20096;-42
2023/08/08 03:39:20;;;;;;;8.00;2.08;;;;;;;;;;6156571;23;20053;-42
2023/08/08 03:41:48;;;;;;;7.87;1.50;;;;;;;;;;6128991;23;20017;-43
2023/08/08 03:44:17;;;;;;;6.75;1.77;;;;;;;;;;6126213;23;20014;-42
2023/08/08 03:46:45;;;;;;;9.15;1.45;;;;;;;;;;6137528;23;20443;-41
2023/08/08 03:49:16;;;;;;;5.88;1.60;;;;;;;;;;6136767;23;20129;-41
2023/08/08 03:51:43;;;;;;;8.10;2.00;;;;;;;;;;6122740;23;20013;-42
2023/08/08 03:54:14;;;;;;;4.77;1.50;;;;;;;;;;6112776;23;20028;-42
2023/08/08 03:56:41;;;;;;;12.90;2.05;;;;;;;;;;6095322;23;20404;-41
2023/08/08 03:59:09;;;;;;;9.73;1.90;;;;;;;;;;6127758;23;20023;-42
2023/08/08 04:01:39;;;;;;;7.35;1.60;;;;;;;;;;6125831;23;20724;-41
2023/08/08 04:04:06;;;;;;;7.50;1.88;;;;;;;;;;6135008;23;20013;-42
2023/08/08 04:06:37;;;;;;;8.47;2.17;;;;;;;;;;6154702;23;20017;-42
2023/08/08 04:09:06;;;;;;;4.70;1.67;;;;;;;;;;6133942;23;20017;-45
2023/08/08 04:11:35;;;;;;;5.82;1.60;;;;;;;;;;6127628;23;20024;-42
2023/08/08 04:14:03;;;;;;;6.80;1.48;;;;;;;;;;6135093;23;20014;-42
2023/08/08 04:16:33;;;;;;;8.07;2.00;;;;;;;;;;6128128;23;20454;-45
2023/08/08 04:19:03;;;;;;;8.63;1.70;;;;;;;;;;6130514;23;20508;-43
2023/08/08 04:21:32;;;;;;;9.02;1.85;;;;;;;;;;6127756;23;20025;-43
2023/08/08 04:24:00;;;;;;;5.97;1.90;;;;;;;;;;6126979;23;20021;-43
2023/08/08 04:26:27;;;;;;;5.28;1.25;;;;;;;;;;6128119;23;20031;-44
2023/08/08 04:28:55;;;;;;;6.22;2.08;;;;;;;;;;6123692;23;20330;-41
2023/08/08 04:31:24;;;;;;;8.27;1.83;;;;;;;;;;6125271;23;20321;-44
2023/08/08 04:33:55;;;;;;;7.90;1.70;;;;;;;;;;6134076;23;20260;-42
2023/08/08 04:36:26;;;;;;;5.88;1.70;;;;;;;;;;6147652;23;20857;-42
2023/08/08 04:38:53;;;;;;;5.85;1.50;;;;;;;;;;6128215;23;20708;-43
2023/08/08 04:41:21;;;;;;;5.95;1.40;;;;;;;;;;6129286;23;20048;-43
2023/08/08 04:43:49;;;;;;;6.63;1.50;;;;;;;;;;6131445;23;20028;-42
2023/08/08 04:46:16;;;;;;;6.00;1.80;;;;;;;;;;6120506;23;20044;-42
2023/08/08 04:48:44;;;;;;;7.32;1.80;;;;;;;;;;6128160;23;20092;-42
2023/08/08 04:51:14;;;;;;;7.25;2.00;;;;;;;;;;6125755;23;20028;-42
2023/08/08 04:53:43;;;;;;;6.15;1.90;;;;;;;;;;6122984;23;20325;-42
2023/08/08 04:56:10;;;;;;;6.57;1.70;;;;;;;;;;6123225;23;20056;-43
2023/08/08 04:58:38;;;;;;;7.45;1.83;;;;;;;;;;6117305;23;20416;-41
2023/08/08 05:01:08;;;;;;;7.10;2.08;;;;;;;;;;6130763;23;20044;-41
2023/08/08 05:03:36;;;;;;;5.60;1.75;;;;;;;;;;6113770;23;20072;-41
2023/08/08 05:06:04;;;;;;;8.82;1.83;;;;;;;;;;6128066;23;20045;-41
2023/08/08 05:08:32;;;;;;;7.53;1.53;;;;;;;;;;6118978;23;20399;-41
2023/08/08 05:11:01;;;;;;;6.28;2.10;;;;;;;;;;6128749;23;20021;-41
2023/08/08 05:13:28;;;;;;;6.85;1.83;;;;;;;;;;6116816;23;20020;-41
2023/08/08 05:15:56;;;;;;;7.57;2.33;;;;;;;;;;6125099;23;20017;-41
2023/08/08 05:18:25;;;;;;;7.40;1.98;;;;;;;;;;6120035;23;20471;-47
2023/08/08 05:20:53;;;;;;;5.97;2.10;;;;;;;;;;6128332;23;20045;-44
2023/08/08 05:23:20;;;;;;;7.22;1.33;;;;;;;;;;6117688;23;20367;-46
2023/08/08 05:25:48;;;;;;;7.13;1.98;;;;;;;;;;6148223;23;20572;-42
2023/08/08 05:28:17;;;;;;;8.02;2.10;;;;;;;;;;6119710;23;20044;-42
2023/08/08 05:30:45;;;;;;;6.85;1.88;;;;;;;;;;6128578;23;20081;-42
2023/08/08 05:33:14;;;;;;;7.17;2.17;;;;;;;;;;6113597;23;20739;-41
2023/08/08 05:35:41;;;;;;;5.63;1.85;;;;;;;;;;6124168;23;20360;-42
2023/08/08 05:38:09;;;;;;;6.53;2.05;;;;;;;;;;6119416;23;20018;-41
2023/08/08 05:40:37;;;;;;;7.22;2.08;;;;;;;;;;6130874;23;20018;-41
2023/08/08 05:43:09;;;;;;;6.93;1.67;;;;;;;;;;6130628;23;20415;-42
2023/08/08 05:45:39;;;;;;;6.20;2.40;;;;;;;;;;6122180;23;20891;-41
2023/08/08 05:48:07;;;;;;;6.15;2.00;;;;;;;;;;6128367;23;20040;-42
2023/08/08 05:50:37;;;;;;;9.50;2.28;;;;;;;;;;6123499;23;20344;-41
2023/08/08 05:53:05;;;;;;;8.65;1.90;;;;;;;;;;6129500;23;20018;-42
2023/08/08 05:55:32;;;;;;;6.57;2.63;;;;;;;;;;6121674;23;20026;-42
2023/08/08 05:58:00;;;;;;;10.13;2.30;;;;;;;;;;6125391;23;20513;-42
2023/08/08 06:00:28;;;;;;;7.10;2.08;;;;;;;;;;6122030;23;20437;-41
2023/08/08 06:02:57;;;;;;;8.68;2.55;;;;;;;;;;6129009;23;20014;-43
2023/08/08 06:05:25;;;;;;;7.38;2.22;;;;;;;;;;6146933;23;20501;-42
2023/08/08 06:07:54;;;;;;;6.20;2.30;;;;;;;;;;6127907;23;20047;-45
2023/08/08 06:10:23;;;;;;;8.33;2.53;;;;;;;;;;6115648;23;20369;-44
2023/08/08 06:12:51;;;;;;;5.80;1.90;;;;;;;;;;6132501;23;20057;-45
2023/08/08 06:15:20;;;;;;;10.43;2.20;;;;;;;;;;6138599;23;20028;-41
2023/08/08 06:17:48;;;;;;;6.80;2.08;;;;;;;;;;6134100;23;20024;-45
2023/08/08 06:20:17;;;;;;;6.47;2.20;;;;;;;;;;6121630;23;20813;-42
2023/08/08 06:22:44;;;;;;;7.43;2.10;;;;;;;;;;6123663;23;20060;-45
2023/08/08 06:25:13;;;;;;;6.95;2.10;;;;;;;;;;6122610;23;20041;-44
2023/08/08 06:27:42;;;;;;;7.80;2.47;;;;;;;;;;6125294;23;20108;-42
2023/08/08 06:30:10;;;;;;;7.85;2.20;;;;;;;;;;6122179;23;20105;-42
2023/08/08 06:32:37;;;;;;;7.53;1.80;;;;;;;;;;6136001;23;20021;-42
2023/08/08 06:35:05;;;;;;;6.90;1.90;;;;;;;;;;6118233;23;20018;-43
2023/08/08 06:37:35;;;;;;;7.32;1.90;;;;;;;;;;6127082;23;20044;-42
2023/08/08 06:40:02;;;;;;;6.32;2.65;;;;;;;;;;6123874;23;20176;-42
2023/08/08 06:42:30;;;;;;;7.15;2.08;;;;;;;;;;6118348;23;20197;-42
2023/08/08 06:44:58;;;;;;;6.30;2.28;;;;;;;;;;6132499;23;20018;-43
2023/08/08 06:47:26;;;;;;;7.50;2.60;;;;;;;;;;6118883;23;20100;-43
2023/08/08 06:49:54;;;;;;;6.80;2.35;;;;;;;;;;6128154;23;20025;-42
2023/08/08 06:52:22;;;;;;;8.43;2.55;;;;;;;;;;6120979;23;20021;-41
2023/08/08 06:54:51;;;;;;;7.07;2.85;;;;;;;;;;6127778;23;20096;-42
2023/08/08 06:57:19;;;;;;;7.60;2.80;;;;;;;;;;6123561;23;20021;-42
2023/08/08 06:59:50;;;;;;;9.07;2.70;;;;;;;;;;6125664;23;20103;-42
2023/08/08 07:02:20;;;;;;;8.73;2.45;;;;;;;;;;6122799;23;20559;-42
2023/08/08 07:04:48;;;;;;;8.75;2.83;;;;;;;;;;6131969;23;20013;-42
2023/08/08 07:07:15;;;;;;;7.55;2.63;;;;;;;;;;6115940;23;20448;-44
2023/08/08 07:09:43;;;;;;;8.23;2.83;;;;;;;;;;6132349;23;20017;-44
2023/08/08 07:12:12;;;;;;;7.33;2.77;;;;;;;;;;6118423;23;20021;-51
2023/08/08 07:14:40;;;;;;;8.25;2.83;;;;;;;;;;6126436;23;20021;-42
2023/08/08 07:17:08;;;;;;;7.63;2.80;;;;;;;;;;6119497;23;20340;-42
2023/08/08 07:19:41;;;;;;;9.15;2.70;;;;;;;;;;6130484;23;20089;-43
2023/08/08 07:22:09;;;;;;;8.43;3.10;;;;;;;;;;6128838;23;20018;-42
2023/08/08 07:24:38;;;;;;;9.90;3.07;;;;;;;;;;6113320;23;20029;-42
2023/08/08 07:27:06;;;;;;;8.25;2.75;;;;;;;;;;6130226;23;20041;-42
2023/08/08 07:29:36;;;;;;;11.05;3.55;;;;;;;;;;6120414;23;20021;-42
2023/08/08 07:32:04;;;;;;;8.82;3.10;;;;;;;;;;6126528;23;20040;-43
2023/08/08 07:34:35;;;;;;;11.13;3.00;;;;;;;;;;6124415;23;20014;-42
2023/08/08 07:37:22;;;;;;;9.43;3.37;;;;;;;;;;6123760;23;20491;-42
2023/08/08 07:39:51;;;;;;;8.38;2.90;;;;;;;;;;6130924;23;20412;-42
2023/08/08 07:42:20;;;;;;;9.38;4.00;;;;;;;;;;6118155;23;20624;-45
2023/08/08 07:44:49;;;;;;;8.98;3.10;;;;;;;;;;6129868;23;20622;-42
2023/08/08 07:47:18;;;;;;;11.68;3.55;;;;;;;;;;6121473;23;20572;-42
2023/08/08 07:49:46;;;;;;;9.50;3.20;;;;;;;;;;6128708;23;20044;-42
2023/08/08 07:52:14;;;;;;;13.85;3.95;;;;;;;;;;6119072;23;20210;-42
2023/08/08 07:54:41;;;;;;;9.52;3.13;;;;;;;;;;6120230;23;20025;-42
2023/08/08 07:57:10;;;;;;;10.13;3.63;;;;;;;;;;6114202;23;20013;-42
2023/08/08 07:59:40;;;;;;;12.43;3.67;;;;;;;;;;6115141;23;20610;-44
2023/08/08 08:02:09;;;;;;;8.43;3.10;;;;;;;;;;6129202;23;20025;-42
2023/08/08 08:04:37;;;;;;;10.75;3.88;;;;;;;;;;6110055;23;20084;-42
2023/08/08 08:07:05;;;;;;;9.93;3.60;;;;;;;;;;6127251;23;20032;-42
2023/08/08 08:09:33;;;;;;;10.57;3.53;;;;;;;;;;6112281;23;20113;-42
2023/08/08 08:12:01;;;;;;;8.50;3.17;;;;;;;;;;6120067;23;20445;-44
2023/08/08 08:14:29;;;;;;;10.30;3.13;;;;;;;;;;6102944;23;20376;-42
2023/08/08 08:16:57;;;;;;;8.55;3.53;;;;;;;;;;6105855;23;20380;-44
2023/08/08 08:19:26;;;;;;;11.93;3.90;;;;;;;;;;6103258;23;20420;-44
2023/08/08 08:21:54;;;;;;;10.30;3.65;;;;;;;;;;6107654;23;20028;-43
2023/08/08 08:24:23;;;;;;;10.43;4.15;;;;;;;;;;6109932;23;20469;-42
2023/08/08 08:26:53;;;;;;;9.17;3.70;;;;;;;;;;6106928;23;20017;-43
2023/08/08 08:29:23;;;;;;;7.90;3.50;;;;;;;;;;6112713;23;20096;-43
2023/08/08 08:31:51;;;;;;;10.48;3.80;;;;;;;;;;6108885;23;20027;-44
2023/08/08 08:34:19;;;;;;;9.13;3.45;;;;;;;;;;6101097;23;20677;-43
2023/08/08 08:36:48;;;;;;;10.43;4.07;;;;;;;;;;6101847;23;20018;-43
2023/08/08 08:39:15;;;;;;;12.30;3.97;;;;;;;;;;6108134;23;20507;-42
2023/08/08 08:41:45;;;;;;;9.10;3.22;;;;;;;;;;6111052;23;20013;-42
2023/08/08 08:44:14;;;;;;;8.32;3.33;;;;;;;;;;6091620;23;20017;-43
2023/08/08 08:46:43;;;;;;;9.70;3.78;;;;;;;;;;6109404;23;20028;-44
2023/08/08 08:49:11;;;;;;;9.55;2.88;;;;;;;;;;6098071;23;20690;-43
2023/08/08 08:51:39;;;;;;;11.73;3.80;;;;;;;;;;6111027;23;20153;-42
2023/08/08 08:54:09;;;;;;;7.60;2.80;;;;;;;;;;6101834;23;20018;-42
2023/08/08 08:56:36;;;;;;;7.30;2.78;;;;;;;;;;6108122;23;20610;-44
2023/08/08 08:59:05;;;;;;;6.70;2.47;;;;;;;;;;6098602;23;20017;-43
2023/08/08 09:01:32;;;;;;;6.50;2.55;;;;;;;;;;6108804;23;20024;-42
2023/08/08 09:04:00;;;;;;;6.57;2.50;;;;;;;;;;6099283;23;20025;-43
2023/08/08 09:06:30;;;;;;;7.85;2.35;;;;;;;;;;6113033;23;20590;-43
2023/08/08 09:08:58;;;;;;;5.65;2.30;;;;;;;;;;6107179;23;20025;-43
2023/08/08 09:11:43;;;;;;;7.05;2.60;;;;;;;;;;6100143;23;20162;-42
2023/08/08 09:14:16;;;;;;;7.47;2.50;;;;;;;;;;6100406;23;20017;-48
2023/08/08 09:16:44;;;;;;;7.47;2.47;;;;;;;;;;6101184;23;20495;-43
2023/08/08 09:19:12;;;;;;;6.28;2.50;;;;;;;;;;6111250;23;20021;-45
2023/08/08 09:21:41;;;;;;;6.22;2.17;;;;;;;;;;6101189;23;20083;-42
2023/08/08 09:24:09;;;;;;;7.82;2.10;;;;;;;;;;6091315;23;20420;-44
2023/08/08 09:26:37;;;;;;;5.18;1.67;;;;;;;;;;6110444;23;20017;-43
2023/08/08 09:29:06;;;;;;;6.43;1.90;;;;;;;;;;6100815;23;20022;-42
2023/08/08 09:31:35;;;;;;;5.50;1.50;;;;;;;;;;6109335;23;20308;-42
2023/08/08 09:34:04;;;;;;;5.05;1.60;;;;;;;;;;6109403;23;20017;-42
2023/08/08 09:36:31;;;;;;;4.90;1.60;;;;;;;;;;6101928;23;20018;-42
2023/08/08 09:39:01;;;;;;;4.90;1.58;;;;;;;;;;6108501;23;20105;-42
2023/08/08 09:41:28;;;;;;;6.13;1.70;;;;;;;;;;6106151;23;20676;-43
2023/08/08 09:43:59;;;;;;;6.43;1.58;;;;;;;;;;6097591;23;20435;-44
2023/08/08 09:46:31;;;;;;;4.63;1.85;;;;;;;;;;6113518;23;20807;-43
2023/08/08 09:48:59;;;;;;;6.03;1.67;;;;;;;;;;6097769;23;20028;-42
2023/08/08 09:51:27;;;;;;;5.43;1.70;;;;;;;;;;6114638;23;20021;-42
2023/08/08 09:53:56;;;;;;;5.80;1.73;;;;;;;;;;6120771;23;20490;-41
2023/08/08 09:56:25;;;;;;;7.43;1.67;;;;;;;;;;6112899;23;20024;-43
2023/08/08 09:58:53;;;;;;;6.13;2.10;;;;;;;;;;6103749;23;20096;-42
2023/08/08 10:01:21;;;;;;;5.82;1.73;;;;;;;;;;6111244;23;20020;-42
2023/08/08 10:03:52;;;;;;;6.70;1.90;;;;;;;;;;6100158;23;20017;-43
2023/08/08 10:06:22;;;;;;;5.60;2.13;;;;;;;;;;6112776;23;20087;-42
2023/08/08 10:08:54;;;;;;;7.18;2.45;;;;;;;;;;6093186;23;20422;-44
2023/08/08 10:11:23;;;;;;;7.07;2.60;;;;;;;;;;6108171;23;20392;-43
2023/08/08 10:13:54;;;;;;;6.97;2.40;;;;;;;;;;6088461;23;20017;-42
2023/08/08 10:16:22;;;;;;;6.10;2.55;;;;;;;;;;6109010;23;20028;-43
2023/08/08 10:18:57;;;;;;;6.77;2.50;;;;;;;;;;6103811;23;20520;-42
2023/08/08 10:21:26;;;;;;;7.15;2.38;;;;;;;;;;6111458;23;20014;-42
2023/08/08 10:24:02;;;;;;;6.97;1.50;;;;;;;;;;6097515;23;20039;-42
2023/08/08 10:26:32;;;;;;;4.75;1.83;;;;;;;;;;6106698;23;20078;-43
2023/08/08 10:29:01;;;;;;;6.85;1.88;;;;;;;;;;6135037;23;20356;-45
2023/08/08 10:31:28;;;;;;;5.57;1.50;;;;;;;;;;6105685;23;20715;-43
2023/08/08 10:34:04;;;;;;;4.32;1.23;;;;;;;;;;6109688;23;20344;-42
2023/08/08 10:36:45;;;;;;;4.97;1.48;;;;;;;;;;6105669;23;20100;-42
2023/08/08 10:39:16;;;;;;;5.55;1.63;;;;;;;;;;6103393;23;20022;-43
2023/08/08 10:41:47;;;;;;;4.93;1.40;;;;;;;;;;6105883;23;20099;-44
2023/08/08 10:44:22;;;;;;;4.57;1.17;;;;;;;;;;6094282;23;20120;-43
2023/08/08 10:46:51;;;;;;;4.43;1.00;;;;;;;;;;6111438;23;20650;-42
2023/08/08 10:49:20;;;;;;;4.20;1.38;;;;;;;;;;6101593;23;20032;-43
2023/08/08 10:51:49;;;;;;;5.35;1.23;;;;;;;;;;6113928;23;20126;-44
2023/08/08 10:54:18;;;;;;;5.35;0.95;;;;;;;;;;6099180;23;20413;-42
2023/08/08 10:56:52;;;;;;;4.20;1.10;;;;;;;;;;6113468;23;20773;-42
2023/08/08 10:59:21;;;;;;;4.65;1.20;;;;;;;;;;6112503;23;20084;-43
2023/08/08 11:01:52;;;;;;;3.75;0.90;;;;;;;;;;6095916;23;20032;-50
2023/08/08 11:04:23;;;;;;;3.67;0.95;;;;;;;;;;6129758;23;20113;-49
2023/08/08 11:06:53;;;;;;;4.28;1.30;;;;;;;;;;6099823;23;20494;-45
2023/08/08 11:09:22;;;;;;;4.83;0.90;;;;;;;;;;6114263;23;20021;-45
2023/08/08 11:11:50;;;;;;;3.90;1.08;;;;;;;;;;6098222;23;20167;-43
2023/08/08 11:14:19;;;;;;;3.63;0.98;;;;;;;;;;6105732;23;20503;-43
2023/08/08 11:16:47;;;;;;;3.35;0.85;;;;;;;;;;6104082;23;20017;-43
2023/08/08 11:19:15;;;;;;;3.63;0.80;;;;;;;;;;6115289;23;20021;-43
2023/08/08 11:21:45;;;;;;;3.90;0.90;;;;;;;;;;6105493;23;20021;-42
2023/08/08 11:24:13;;;;;;;3.50;0.90;;;;;;;;;;6108886;23;20025;-44
2023/08/08 11:26:43;;;;;;;3.67;0.82;;;;;;;;;;6107480;23;20014;-42
2023/08/08 11:29:12;;;;;;;4.15;1.05;;;;;;;;;;6113923;23;20022;-44
2023/08/08 11:31:39;;;;;;;4.00;0.90;;;;;;;;;;6094162;23;20025;-46
2023/08/08 11:34:09;;;;;;;4.00;1.00;;;;;;;;;;6109843;23;20615;-43
2023/08/08 11:36:37;;;;;;;5.03;1.50;;;;;;;;;;6106625;23;20456;-42
2023/08/08 11:39:09;;;;;;;6.45;1.30;;;;;;;;;;6108742;23;20045;-44
2023/08/08 11:41:40;;;;;;;5.75;1.60;;;;;;;;;;6108008;23;20116;-44
2023/08/08 11:44:08;;;;;;;7.55;1.65;;;;;;;;;;6092689;23;20084;-44
2023/08/08 11:46:43;;;;;;;14.30;2.40;;;;;;;;;;6109651;23;20506;-43
2023/08/08 11:49:11;;;;;;;6.15;1.90;;;;;;;;;;6098355;23;20360;-45
2023/08/08 11:51:39;;;;;;;5.80;2.13;;;;;;;;;;6113307;23;20426;-43
2023/08/08 11:54:08;;;;;;;6.80;2.28;;;;;;;;;;6098602;23;20017;-43
2023/08/08 11:56:37;;;;;;;7.78;2.50;;;;;;;;;;6110068;23;20025;-42
2023/08/08 11:59:05;;;;;;;7.43;2.23;;;;;;;;;;6102937;23;20027;-42
2023/08/08 12:01:33;;;;;;;11.30;2.88;;;;;;;;;;6118773;23;20483;-42
2023/08/08 12:04:05;;;;;;;8.45;3.10;;;;;;;;;;6103776;23;20385;-42
2023/08/08 12:06:33;;;;;;;11.57;3.38;;;;;;;;;;6102636;23;20025;-43
2023/08/08 12:09:01;;;;;;;12.00;3.60;;;;;;;;;;6097500;23;20344;-43
2023/08/08 12:11:32;;;;;;;9.93;3.10;;;;;;;;;;6111254;23;20079;-44
2023/08/08 12:14:04;;;;;;;10.73;3.10;;;;;;;;;;6099508;23;20108;-44
2023/08/08 12:16:32;;;;;;;7.80;3.30;;;;;;;;;;6078155;23;20196;-45
2023/08/08 12:19:02;;;;;;;10.13;3.58;;;;;;;;;;6104282;23;20072;-45
2023/08/08 12:21:30;;;;;;;10.48;3.30;;;;;;;;;;6095627;23;20356;-42
2023/08/08 12:23:58;;;;;;;13.13;4.30;;;;;;;;;;6103628;23;20022;-43
2023/08/08 12:26:26;;;;;;;8.75;3.20;;;;;;;;;;6101996;23;20331;-44
2023/08/08 12:28:56;;;;;;;6.85;2.92;;;;;;;;;;6110590;23;20024;-42
2023/08/08 12:31:25;;;;;;;8.32;3.65;;;;;;;;;;6084499;23;20379;-44
2023/08/08 12:33:53;;;;;;;9.23;3.45;;;;;;;;;;6103209;23;20018;-44
2023/08/08 12:36:22;;;;;;;13.63;3.70;;;;;;;;;;6095089;23;20469;-45
2023/08/08 12:38:50;;;;;;;9.65;3.33;;;;;;;;;;6102593;23;20041;-43
2023/08/08 12:41:17;;;;;;;8.18;3.72;;;;;;;;;;6107539;23;20022;-44
2023/08/08 12:43:45;;;;;;;12.65;4.47;;;;;;;;;;6098386;23;20243;-44
2023/08/08 12:46:14;;;;;;;8.65;4.03;;;;;;;;;;6097237;23;20022;-43
2023/08/08 12:48:43;;;;;;;12.67;4.03;;;;;;;;;;6110258;23;20057;-42
2023/08/08 12:51:16;;;;;;;12.32;4.22;;;;;;;;;;6108650;23;20076;-43
2023/08/08 12:53:45;;;;;;;10.15;4.25;;;;;;;;;;6083029;23;20592;-44
2023/08/08 12:56:12;;;;;;;9.25;3.70;;;;;;;;;;6108483;23;20018;-44
2023/08/08 12:58:40;;;;;;;9.23;2.63;;;;;;;;;;6091725;23;20035;-43
2023/08/08 13:01:08;;;;;;;8.97;3.50;;;;;;;;;;6110546;23;20025;-45
2023/08/08 13:03:37;;;;;;;6.72;3.13;;;;;;;;;;6092020;23;20013;-43
2023/08/08 13:06:06;;;;;;;7.90;3.10;;;;;;;;;;6109405;23;20093;-43
2023/08/08 13:08:34;;;;;;;6.20;2.63;;;;;;;;;;6094773;23;20072;-45
2023/08/08 13:11:02;;;;;;;6.13;2.30;;;;;;;;;;6112038;23;20443;-43
2023/08/08 13:13:30;;;;;;;6.53;1.90;;;;;;;;;;6089881;23;20024;-43
2023/08/08 13:15:58;;;;;;;4.93;1.40;;;;;;;;;;6112020;23;20449;-44
2023/08/08 13:18:26;;;;;;;6.75;2.28;;;;;;;;;;6095544;23;20542;-43
2023/08/08 13:20:55;;;;;;;4.95;1.80;;;;;;;;;;6115691;23;20021;-43
2023/08/08 13:23:23;;;;;;;4.50;1.42;;;;;;;;;;6096727;23;20488;-45
2023/08/08 13:25:51;;;;;;;4.73;1.53;;;;;;;;;;6110781;23;20024;-48
2023/08/08 13:28:19;;;;;;;4.55;1.70;;;;;;;;;;6103453;23;20021;-44
2023/08/08 13:30:46;;;;;;;5.88;1.80;;;;;;;;;;6112952;23;20024;-43
2023/08/08 13:33:14;;;;;;;6.63;2.10;;;;;;;;;;6091115;23;20017;-43
2023/08/08 13:35:42;;;;;;;6.47;2.20;;;;;;;;;;6104879;23;20013;-42
2023/08/08 13:38:14;;;;;;;4.63;1.17;;;;;;;;;;6100135;23;20022;-44
2023/08/08 13:40:47;;;;;;;4.25;1.10;;;;;;;;;;6109579;23;20127;-45
2023/08/08 13:43:15;;;;;;;4.00;1.20;;;;;;;;;;6108303;23;20041;-43
2023/08/08 13:45:44;;;;;;;4.55;1.30;;;;;;;;;;6100772;23;20416;-44
2023/08/08 13:48:11;;;;;;;4.18;0.90;;;;;;;;;;6099732;23;20324;-44
2023/08/08 13:50:39;;;;;;;3.20;0.80;;;;;;;;;;6104670;23;20017;-43
2023/08/08 13:53:07;;;;;;;4.45;1.30;;;;;;;;;;6113506;23;20389;-44
2023/08/08 13:55:39;;;;;;;4.80;1.10;;;;;;;;;;6100117;23;20268;-49
2023/08/08 13:58:07;;;;;;;6.63;1.80;;;;;;;;;;6110926;23;20377;-47
2023/08/08 14:00:35;;;;;;;4.78;1.60;;;;;;;;;;6105273;23;20036;-46
2023/08/08 14:03:03;;;;;;;4.17;1.30;;;;;;;;;;6107987;23;20477;-44
2023/08/08 14:05:32;;;;;;;6.60;1.55;;;;;;;;;;6103243;23;20017;-43
2023/08/08 14:07:59;;;;;;;6.55;1.52;;;;;;;;;;6111808;23;20021;-43
2023/08/08 14:10:27;;;;;;;4.63;1.40;;;;;;;;;;6105425;23;20021;-43
2023/08/08 14:12:57;;;;;;;3.83;1.23;;;;;;;;;;6108786;23;20017;-45
2023/08/08 14:15:25;;;;;;;4.57;1.30;;;;;;;;;;6108925;23;20037;-46
2023/08/08 14:17:53;;;;;;;4.05;1.10;;;;;;;;;;6111637;23;20025;-43
2023/08/08 14:20:21;;;;;;;4.00;1.33;;;;;;;;;;6108788;23;20389;-44
2023/08/08 14:22:51;;;;;;;3.30;1.10;;;;;;;;;;6108967;23;20017;-45
2023/08/08 14:25:19;;;;;;;4.35;1.15;;;;;;;;;;6082976;23;20554;-46
2023/08/08 14:27:47;;;;;;;4.00;1.37;;;;;;;;;;6108478;23;20021;-44
2023/08/08 14:30:16;;;;;;;4.63;1.23;;;;;;;;;;6111734;23;20021;-43
2023/08/08 14:32:44;;;;;;;4.00;1.30;;;;;;;;;;6102283;23;20756;-45
2023/08/08 14:35:12;;;;;;;6.13;1.63;;;;;;;;;;6099087;23;20525;-43
2023/08/08 14:37:40;;;;;;;4.57;1.30;;;;;;;;;;6115496;23;20097;-43
2023/08/08 14:40:08;;;;;;;5.50;1.70;;;;;;;;;;6127173;23;20060;-45
2023/08/08 14:42:37;;;;;;;3.60;1.13;;;;;;;;;;6110620;23;20463;-47
2023/08/08 14:45:06;;;;;;;4.22;1.27;;;;;;;;;;6126734;23;20017;-45
2023/08/08 14:47:35;;;;;;;4.93;1.15;;;;;;;;;;6113595;23;20028;-43
2023/08/08 14:50:04;;;;;;;3.88;1.00;;;;;;;;;;6103089;23;20095;-44